sensor_id;sensor_type;location;lat;lon;timestamp;P1;durP1;ratioP1;P2;durP2;ratioP2
20709;SDS011;10516;51.518;9.864;2023-01-08T00:01:59;6.60;;;5.22;;
20709;SDS011;10516;51.518;9.864;2023-01-08T00:04:25;7.43;;;5.30;;
20709;SDS011;10516;51.518;9.864;2023-01-08T00:06:50;8.30;;;6.65;;
20709;SDS011;10516;51.518;9.864;2023-01-08T00:09:16;13.90;;;6.47;;
20709;SDS011;10516;51.518;9.864;2023-01-08T00:11:41;15.00;;;6.72;;
20709;SDS011;10516;51.518;9.864;2023-01-08T00:14:08;14.48;;;7.75;;
20709;SDS011;10516;51.518;9.864;2023-01-08T00:16:34;11.43;;;6.70;;
20709;SDS011;10516;51.518;9.864;2023-01-08T00:18:59;14.30;;;6.40;;
20709;SDS011;10516;51.518;9.864;2023-01-08T00:21:25;9.10;;;6.07;;
20709;SDS011;10516;51.518;9.864;2023-01-08T00:23:50;15.07;;;7.07;;
20709;SDS011;10516;51.518;9.864;2023-01-08T00:26:15;11.63;;;8.35;;
20709;SDS011;10516;51.518;9.864;2023-01-08T00:28:41;10.52;;;8.07;;
20709;SDS011;10516;51.518;9.864;2023-01-08T00:31:07;9.15;;;6.93;;
20709;SDS011;10516;51.518;9.864;2023-01-08T00:33:34;9.65;;;5.65;;
20709;SDS011;10516;51.518;9.864;2023-01-08T00:35:59;10.50;;;6.35;;
20709;SDS011;10516;51.518;9.864;2023-01-08T00:38:30;8.65;;;5.60;;
20709;SDS011;10516;51.518;9.864;2023-01-08T00:40:55;7.40;;;6.45;;
20709;SDS011;10516;51.518;9.864;2023-01-08T00:43:21;9.85;;;5.97;;
20709;SDS011;10516;51.518;9.864;2023-01-08T00:45:47;11.20;;;7.18;;
20709;SDS011;10516;51.518;9.864;2023-01-08T00:48:12;10.18;;;6.22;;
20709;SDS011;10516;51.518;9.864;2023-01-08T00:50:37;9.20;;;6.65;;
20709;SDS011;10516;51.518;9.864;2023-01-08T00:53:03;10.40;;;6.53;;
20709;SDS011;10516;51.518;9.864;2023-01-08T00:55:28;8.10;;;6.18;;
20709;SDS011;10516;51.518;9.864;2023-01-08T00:57:54;8.80;;;5.75;;
20709;SDS011;10516;51.518;9.864;2023-01-08T01:00:22;11.02;;;5.78;;
20709;SDS011;10516;51.518;9.864;2023-01-08T01:02:48;6.57;;;5.95;;
20709;SDS011;10516;51.518;9.864;2023-01-08T01:05:13;8.32;;;6.38;;
20709;SDS011;10516;51.518;9.864;2023-01-08T01:07:41;6.70;;;5.70;;
20709;SDS011;10516;51.518;9.864;2023-01-08T01:10:07;8.65;;;6.68;;
20709;SDS011;10516;51.518;9.864;2023-01-08T01:12:33;11.50;;;6.97;;
20709;SDS011;10516;51.518;9.864;2023-01-08T01:15:01;8.02;;;6.43;;
20709;SDS011;10516;51.518;9.864;2023-01-08T01:17:27;8.60;;;6.10;;
20709;SDS011;10516;51.518;9.864;2023-01-08T01:19:52;8.05;;;6.30;;
20709;SDS011;10516;51.518;9.864;2023-01-08T01:22:18;8.90;;;6.53;;
20709;SDS011;10516;51.518;9.864;2023-01-08T01:24:43;8.45;;;5.82;;
20709;SDS011;10516;51.518;9.864;2023-01-08T01:27:08;11.00;;;6.55;;
20709;SDS011;10516;51.518;9.864;2023-01-08T01:29:34;7.43;;;5.32;;
20709;SDS011;10516;51.518;9.864;2023-01-08T01:31:59;8.50;;;6.10;;
20709;SDS011;10516;51.518;9.864;2023-01-08T01:34:24;9.52;;;7.22;;
20709;SDS011;10516;51.518;9.864;2023-01-08T01:36:50;6.97;;;5.40;;
20709;SDS011;10516;51.518;9.864;2023-01-08T01:39:15;14.23;;;9.57;;
20709;SDS011;10516;51.518;9.864;2023-01-08T01:41:42;7.25;;;6.05;;
20709;SDS011;10516;51.518;9.864;2023-01-08T01:49:38;11.07;;;7.60;;
20709;SDS011;10516;51.518;9.864;2023-01-08T01:52:07;13.95;;;9.80;;
20709;SDS011;10516;51.518;9.864;2023-01-08T01:54:34;10.57;;;7.18;;
20709;SDS011;10516;51.518;9.864;2023-01-08T01:57:00;8.82;;;6.30;;
20709;SDS011;10516;51.518;9.864;2023-01-08T01:59:26;12.90;;;6.93;;
20709;SDS011;10516;51.518;9.864;2023-01-08T02:01:52;11.43;;;6.68;;
20709;SDS011;10516;51.518;9.864;2023-01-08T02:04:19;9.20;;;5.22;;
20709;SDS011;10516;51.518;9.864;2023-01-08T02:12:19;7.63;;;5.13;;
20709;SDS011;10516;51.518;9.864;2023-01-08T02:20:07;8.90;;;6.28;;
20709;SDS011;10516;51.518;9.864;2023-01-08T02:22:45;8.18;;;6.03;;
20709;SDS011;10516;51.518;9.864;2023-01-08T02:28:12;8.95;;;5.53;;
20709;SDS011;10516;51.518;9.864;2023-01-08T02:30:40;8.00;;;5.78;;
20709;SDS011;10516;51.518;9.864;2023-01-08T02:33:05;8.10;;;5.57;;
20709;SDS011;10516;51.518;9.864;2023-01-08T02:35:37;10.48;;;5.80;;
20709;SDS011;10516;51.518;9.864;2023-01-08T02:38:07;6.55;;;4.85;;
20709;SDS011;10516;51.518;9.864;2023-01-08T02:40:39;6.20;;;5.15;;
20709;SDS011;10516;51.518;9.864;2023-01-08T02:43:54;7.38;;;5.18;;
20709;SDS011;10516;51.518;9.864;2023-01-08T02:46:06;7.13;;;5.30;;
20709;SDS011;10516;51.518;9.864;2023-01-08T02:48:44;7.03;;;4.68;;
20709;SDS011;10516;51.518;9.864;2023-01-08T02:51:14;5.95;;;4.55;;
20709;SDS011;10516;51.518;9.864;2023-01-08T02:53:46;5.68;;;4.80;;
20709;SDS011;10516;51.518;9.864;2023-01-08T02:56:18;7.22;;;5.72;;
20709;SDS011;10516;51.518;9.864;2023-01-08T02:58:46;5.90;;;4.82;;
20709;SDS011;10516;51.518;9.864;2023-01-08T03:01:15;5.68;;;5.18;;
20709;SDS011;10516;51.518;9.864;2023-01-08T03:03:42;9.68;;;4.97;;
20709;SDS011;10516;51.518;9.864;2023-01-08T03:06:13;6.45;;;4.63;;
20709;SDS011;10516;51.518;9.864;2023-01-08T03:08:41;7.60;;;5.40;;
20709;SDS011;10516;51.518;9.864;2023-01-08T03:11:10;6.68;;;4.80;;
20709;SDS011;10516;51.518;9.864;2023-01-08T03:13:44;5.82;;;5.05;;
20709;SDS011;10516;51.518;9.864;2023-01-08T03:16:11;6.57;;;4.68;;
20709;SDS011;10516;51.518;9.864;2023-01-08T03:19:00;5.88;;;4.65;;
20709;SDS011;10516;51.518;9.864;2023-01-08T03:21:32;8.02;;;5.07;;
20709;SDS011;10516;51.518;9.864;2023-01-08T03:24:01;8.18;;;4.47;;
20709;SDS011;10516;51.518;9.864;2023-01-08T03:26:27;7.75;;;4.72;;
20709;SDS011;10516;51.518;9.864;2023-01-08T03:28:56;5.40;;;4.78;;
20709;SDS011;10516;51.518;9.864;2023-01-08T03:31:22;5.03;;;4.53;;
20709;SDS011;10516;51.518;9.864;2023-01-08T03:33:51;5.32;;;4.10;;
20709;SDS011;10516;51.518;9.864;2023-01-08T03:36:20;6.47;;;4.50;;
20709;SDS011;10516;51.518;9.864;2023-01-08T03:38:51;5.95;;;4.80;;
20709;SDS011;10516;51.518;9.864;2023-01-08T03:41:22;7.35;;;4.32;;
20709;SDS011;10516;51.518;9.864;2023-01-08T03:43:50;5.88;;;4.63;;
20709;SDS011;10516;51.518;9.864;2023-01-08T03:46:19;7.57;;;5.22;;
20709;SDS011;10516;51.518;9.864;2023-01-08T03:48:48;6.53;;;4.47;;
20709;SDS011;10516;51.518;9.864;2023-01-08T03:51:15;6.30;;;4.80;;
20709;SDS011;10516;51.518;9.864;2023-01-08T03:53:40;4.55;;;4.15;;
20709;SDS011;10516;51.518;9.864;2023-01-08T03:56:06;7.20;;;4.88;;
20709;SDS011;10516;51.518;9.864;2023-01-08T03:58:31;8.48;;;4.57;;
20709;SDS011;10516;51.518;9.864;2023-01-08T04:00:57;6.35;;;4.93;;
20709;SDS011;10516;51.518;9.864;2023-01-08T04:03:22;9.65;;;4.90;;
20709;SDS011;10516;51.518;9.864;2023-01-08T04:05:48;5.55;;;4.75;;
20709;SDS011;10516;51.518;9.864;2023-01-08T04:08:14;5.28;;;4.20;;
20709;SDS011;10516;51.518;9.864;2023-01-08T04:10:39;7.20;;;4.72;;
20709;SDS011;10516;51.518;9.864;2023-01-08T04:13:04;5.72;;;4.80;;
20709;SDS011;10516;51.518;9.864;2023-01-08T04:15:30;7.05;;;4.78;;
20709;SDS011;10516;51.518;9.864;2023-01-08T04:17:55;5.50;;;4.32;;
20709;SDS011;10516;51.518;9.864;2023-01-08T04:20:20;7.78;;;5.45;;
20709;SDS011;10516;51.518;9.864;2023-01-08T04:22:46;7.65;;;5.03;;
20709;SDS011;10516;51.518;9.864;2023-01-08T04:25:11;6.72;;;4.47;;
20709;SDS011;10516;51.518;9.864;2023-01-08T04:27:36;6.78;;;4.28;;
20709;SDS011;10516;51.518;9.864;2023-01-08T04:30:02;6.57;;;5.10;;
20709;SDS011;10516;51.518;9.864;2023-01-08T04:32:28;6.03;;;4.22;;
20709;SDS011;10516;51.518;9.864;2023-01-08T04:34:53;6.15;;;4.78;;
20709;SDS011;10516;51.518;9.864;2023-01-08T04:37:18;5.57;;;4.88;;
20709;SDS011;10516;51.518;9.864;2023-01-08T04:39:44;5.18;;;4.10;;
20709;SDS011;10516;51.518;9.864;2023-01-08T04:42:09;5.45;;;4.70;;
20709;SDS011;10516;51.518;9.864;2023-01-08T04:44:34;5.43;;;4.43;;
20709;SDS011;10516;51.518;9.864;2023-01-08T04:47:00;7.30;;;4.57;;
20709;SDS011;10516;51.518;9.864;2023-01-08T04:49:25;5.95;;;4.85;;
20709;SDS011;10516;51.518;9.864;2023-01-08T04:51:50;7.22;;;4.60;;
20709;SDS011;10516;51.518;9.864;2023-01-08T04:54:16;7.80;;;3.85;;
20709;SDS011;10516;51.518;9.864;2023-01-08T04:56:41;5.38;;;4.35;;
20709;SDS011;10516;51.518;9.864;2023-01-08T04:59:07;6.82;;;5.07;;
20709;SDS011;10516;51.518;9.864;2023-01-08T05:01:32;5.82;;;4.47;;
20709;SDS011;10516;51.518;9.864;2023-01-08T05:03:58;6.15;;;4.72;;
20709;SDS011;10516;51.518;9.864;2023-01-08T05:06:26;5.85;;;4.43;;
20709;SDS011;10516;51.518;9.864;2023-01-08T05:08:53;6.47;;;4.60;;
20709;SDS011;10516;51.518;9.864;2023-01-08T05:11:18;4.80;;;4.13;;
20709;SDS011;10516;51.518;9.864;2023-01-08T05:13:46;7.20;;;4.78;;
20709;SDS011;10516;51.518;9.864;2023-01-08T05:16:12;6.43;;;4.68;;
20709;SDS011;10516;51.518;9.864;2023-01-08T05:18:38;7.75;;;5.55;;
20709;SDS011;10516;51.518;9.864;2023-01-08T05:21:03;10.25;;;4.80;;
20709;SDS011;10516;51.518;9.864;2023-01-08T05:23:30;6.15;;;4.63;;
20709;SDS011;10516;51.518;9.864;2023-01-08T05:25:59;5.97;;;4.68;;
20709;SDS011;10516;51.518;9.864;2023-01-08T05:28:27;9.48;;;6.10;;
20709;SDS011;10516;51.518;9.864;2023-01-08T05:30:52;5.70;;;5.03;;
20709;SDS011;10516;51.518;9.864;2023-01-08T05:33:18;6.20;;;5.00;;
20709;SDS011;10516;51.518;9.864;2023-01-08T05:35:44;6.35;;;4.88;;
20709;SDS011;10516;51.518;9.864;2023-01-08T05:38:09;5.90;;;4.80;;
20709;SDS011;10516;51.518;9.864;2023-01-08T05:40:35;6.82;;;6.13;;
20709;SDS011;10516;51.518;9.864;2023-01-08T05:43:00;6.70;;;5.15;;
20709;SDS011;10516;51.518;9.864;2023-01-08T05:45:26;7.05;;;5.05;;
20709;SDS011;10516;51.518;9.864;2023-01-08T05:47:52;7.38;;;5.25;;
20709;SDS011;10516;51.518;9.864;2023-01-08T05:50:18;8.15;;;4.90;;
20709;SDS011;10516;51.518;9.864;2023-01-08T05:52:43;5.72;;;5.10;;
20709;SDS011;10516;51.518;9.864;2023-01-08T05:55:08;7.78;;;5.25;;
20709;SDS011;10516;51.518;9.864;2023-01-08T05:57:34;5.68;;;4.95;;
20709;SDS011;10516;51.518;9.864;2023-01-08T05:59:59;10.88;;;5.25;;
20709;SDS011;10516;51.518;9.864;2023-01-08T06:02:24;7.45;;;5.10;;
20709;SDS011;10516;51.518;9.864;2023-01-08T06:04:50;6.43;;;5.05;;
20709;SDS011;10516;51.518;9.864;2023-01-08T06:07:15;7.18;;;5.47;;
20709;SDS011;10516;51.518;9.864;2023-01-08T06:09:41;8.52;;;5.53;;
20709;SDS011;10516;51.518;9.864;2023-01-08T06:12:06;5.55;;;4.95;;
20709;SDS011;10516;51.518;9.864;2023-01-08T06:14:31;7.85;;;5.32;;
20709;SDS011;10516;51.518;9.864;2023-01-08T06:16:57;6.57;;;5.28;;
20709;SDS011;10516;51.518;9.864;2023-01-08T06:19:22;7.97;;;5.53;;
20709;SDS011;10516;51.518;9.864;2023-01-08T06:21:48;9.90;;;5.40;;
20709;SDS011;10516;51.518;9.864;2023-01-08T06:24:13;6.72;;;5.90;;
20709;SDS011;10516;51.518;9.864;2023-01-08T06:26:38;5.40;;;4.88;;
20709;SDS011;10516;51.518;9.864;2023-01-08T06:29:04;6.43;;;5.65;;
20709;SDS011;10516;51.518;9.864;2023-01-08T06:31:29;8.15;;;5.70;;
20709;SDS011;10516;51.518;9.864;2023-01-08T06:33:54;6.68;;;5.10;;
20709;SDS011;10516;51.518;9.864;2023-01-08T06:36:20;9.15;;;6.00;;
20709;SDS011;10516;51.518;9.864;2023-01-08T06:38:45;6.85;;;5.78;;
20709;SDS011;10516;51.518;9.864;2023-01-08T06:41:10;10.10;;;6.78;;
20709;SDS011;10516;51.518;9.864;2023-01-08T06:43:36;9.85;;;5.85;;
20709;SDS011;10516;51.518;9.864;2023-01-08T06:46:03;9.65;;;6.53;;
20709;SDS011;10516;51.518;9.864;2023-01-08T06:48:29;9.40;;;6.53;;
20709;SDS011;10516;51.518;9.864;2023-01-08T06:50:54;12.07;;;6.05;;
20709;SDS011;10516;51.518;9.864;2023-01-08T06:53:21;7.05;;;5.95;;
20709;SDS011;10516;51.518;9.864;2023-01-08T06:55:47;7.70;;;5.32;;
20709;SDS011;10516;51.518;9.864;2023-01-08T06:58:12;8.48;;;6.40;;
20709;SDS011;10516;51.518;9.864;2023-01-08T07:00:38;8.20;;;6.25;;
20709;SDS011;10516;51.518;9.864;2023-01-08T07:03:03;9.27;;;5.70;;
20709;SDS011;10516;51.518;9.864;2023-01-08T07:05:29;7.80;;;5.82;;
20709;SDS011;10516;51.518;9.864;2023-01-08T07:07:54;7.68;;;6.07;;
20709;SDS011;10516;51.518;9.864;2023-01-08T07:10:20;9.88;;;6.63;;
20709;SDS011;10516;51.518;9.864;2023-01-08T07:12:46;6.75;;;5.15;;
20709;SDS011;10516;51.518;9.864;2023-01-08T07:15:12;10.13;;;6.30;;
20709;SDS011;10516;51.518;9.864;2023-01-08T07:17:37;7.80;;;6.40;;
20709;SDS011;10516;51.518;9.864;2023-01-08T07:20:03;6.88;;;6.18;;
20709;SDS011;10516;51.518;9.864;2023-01-08T07:22:29;9.35;;;6.45;;
20709;SDS011;10516;51.518;9.864;2023-01-08T07:24:54;7.75;;;6.47;;
20709;SDS011;10516;51.518;9.864;2023-01-08T07:27:19;13.27;;;6.53;;
20709;SDS011;10516;51.518;9.864;2023-01-08T07:29:45;4.63;;;3.97;;
20709;SDS011;10516;51.518;9.864;2023-01-08T07:32:10;7.22;;;4.97;;
20709;SDS011;10516;51.518;9.864;2023-01-08T07:34:35;5.22;;;4.60;;
20709;SDS011;10516;51.518;9.864;2023-01-08T07:37:01;5.97;;;4.72;;
20709;SDS011;10516;51.518;9.864;2023-01-08T07:39:27;7.38;;;4.32;;
20709;SDS011;10516;51.518;9.864;2023-01-08T07:41:52;6.93;;;4.47;;
20709;SDS011;10516;51.518;9.864;2023-01-08T07:44:18;5.13;;;3.03;;
20709;SDS011;10516;51.518;9.864;2023-01-08T07:46:43;3.28;;;2.70;;
20709;SDS011;10516;51.518;9.864;2023-01-08T07:49:10;3.38;;;2.88;;
20709;SDS011;10516;51.518;9.864;2023-01-08T07:51:35;2.65;;;2.42;;
20709;SDS011;10516;51.518;9.864;2023-01-08T07:54:00;3.25;;;2.53;;
20709;SDS011;10516;51.518;9.864;2023-01-08T07:56:26;2.95;;;2.47;;
20709;SDS011;10516;51.518;9.864;2023-01-08T07:58:51;2.15;;;2.00;;
20709;SDS011;10516;51.518;9.864;2023-01-08T08:01:17;1.83;;;1.65;;
20709;SDS011;10516;51.518;9.864;2023-01-08T08:03:42;2.53;;;2.33;;
20709;SDS011;10516;51.518;9.864;2023-01-08T08:06:07;1.50;;;1.40;;
20709;SDS011;10516;51.518;9.864;2023-01-08T08:08:33;2.53;;;2.03;;
20709;SDS011;10516;51.518;9.864;2023-01-08T08:10:59;1.90;;;1.73;;
20709;SDS011;10516;51.518;9.864;2023-01-08T08:13:25;3.28;;;2.13;;
20709;SDS011;10516;51.518;9.864;2023-01-08T08:15:50;1.98;;;1.77;;
20709;SDS011;10516;51.518;9.864;2023-01-08T08:18:16;1.40;;;1.30;;
20709;SDS011;10516;51.518;9.864;2023-01-08T08:20:41;1.67;;;1.52;;
20709;SDS011;10516;51.518;9.864;2023-01-08T08:23:08;1.70;;;1.42;;
20709;SDS011;10516;51.518;9.864;2023-01-08T08:25:37;2.38;;;1.48;;
20709;SDS011;10516;51.518;9.864;2023-01-08T08:28:02;1.77;;;1.67;;
20709;SDS011;10516;51.518;9.864;2023-01-08T08:30:28;1.92;;;1.67;;
20709;SDS011;10516;51.518;9.864;2023-01-08T08:32:56;2.90;;;1.75;;
20709;SDS011;10516;51.518;9.864;2023-01-08T08:35:23;2.45;;;2.17;;
20709;SDS011;10516;51.518;9.864;2023-01-08T08:37:49;1.40;;;1.30;;
20709;SDS011;10516;51.518;9.864;2023-01-08T08:40:14;1.50;;;1.40;;
20709;SDS011;10516;51.518;9.864;2023-01-08T08:42:40;2.65;;;1.70;;
20709;SDS011;10516;51.518;9.864;2023-01-08T08:45:05;2.08;;;1.88;;
20709;SDS011;10516;51.518;9.864;2023-01-08T08:47:31;3.60;;;2.08;;
20709;SDS011;10516;51.518;9.864;2023-01-08T08:49:57;1.48;;;1.38;;
20709;SDS011;10516;51.518;9.864;2023-01-08T08:52:22;1.90;;;1.42;;
20709;SDS011;10516;51.518;9.864;2023-01-08T08:54:47;3.13;;;1.83;;
20709;SDS011;10516;51.518;9.864;2023-01-08T08:57:13;1.50;;;1.40;;
20709;SDS011;10516;51.518;9.864;2023-01-08T08:59:38;3.38;;;1.33;;
20709;SDS011;10516;51.518;9.864;2023-01-08T09:02:03;1.98;;;1.67;;
20709;SDS011;10516;51.518;9.864;2023-01-08T09:04:30;1.95;;;1.35;;
20709;SDS011;10516;51.518;9.864;2023-01-08T09:06:56;3.03;;;1.77;;
20709;SDS011;10516;51.518;9.864;2023-01-08T09:09:22;2.13;;;1.92;;
20709;SDS011;10516;51.518;9.864;2023-01-08T09:11:47;2.38;;;1.70;;
20709;SDS011;10516;51.518;9.864;2023-01-08T09:14:12;1.70;;;1.55;;
20709;SDS011;10516;51.518;9.864;2023-01-08T09:16:38;2.38;;;1.80;;
20709;SDS011;10516;51.518;9.864;2023-01-08T09:19:03;1.60;;;1.50;;
20709;SDS011;10516;51.518;9.864;2023-01-08T09:21:30;1.67;;;1.58;;
20709;SDS011;10516;51.518;9.864;2023-01-08T09:23:55;1.75;;;1.65;;
20709;SDS011;10516;51.518;9.864;2023-01-08T09:26:21;1.40;;;1.30;;
20709;SDS011;10516;51.518;9.864;2023-01-08T09:28:46;2.03;;;1.70;;
20709;SDS011;10516;51.518;9.864;2023-01-08T09:31:12;1.95;;;1.85;;
20709;SDS011;10516;51.518;9.864;2023-01-08T09:33:37;2.47;;;1.77;;
20709;SDS011;10516;51.518;9.864;2023-01-08T09:36:02;2.17;;;2.00;;
20709;SDS011;10516;51.518;9.864;2023-01-08T09:38:28;2.92;;;2.72;;
20709;SDS011;10516;51.518;9.864;2023-01-08T09:40:55;2.85;;;2.63;;
20709;SDS011;10516;51.518;9.864;2023-01-08T09:43:24;1.67;;;1.58;;
20709;SDS011;10516;51.518;9.864;2023-01-08T09:45:54;3.45;;;2.92;;
20709;SDS011;10516;51.518;9.864;2023-01-08T09:48:23;4.68;;;2.70;;
20709;SDS011;10516;51.518;9.864;2023-01-08T09:50:52;3.20;;;2.90;;
20709;SDS011;10516;51.518;9.864;2023-01-08T09:53:17;4.07;;;2.90;;
20709;SDS011;10516;51.518;9.864;2023-01-08T09:55:44;3.15;;;2.10;;
20709;SDS011;10516;51.518;9.864;2023-01-08T09:58:22;3.72;;;3.10;;
20709;SDS011;10516;51.518;9.864;2023-01-08T10:00:54;2.33;;;2.13;;
20709;SDS011;10516;51.518;9.864;2023-01-08T10:03:21;2.58;;;2.38;;
20709;SDS011;10516;51.518;9.864;2023-01-08T10:05:52;2.22;;;2.03;;
20709;SDS011;10516;51.518;9.864;2023-01-08T10:08:18;1.85;;;1.75;;
20709;SDS011;10516;51.518;9.864;2023-01-08T10:10:43;2.65;;;2.20;;
20709;SDS011;10516;51.518;9.864;2023-01-08T10:13:10;2.65;;;2.33;;
20709;SDS011;10516;51.518;9.864;2023-01-08T10:15:36;2.88;;;1.98;;
20709;SDS011;10516;51.518;9.864;2023-01-08T10:18:05;1.80;;;1.70;;
20709;SDS011;10516;51.518;9.864;2023-01-08T10:20:36;2.10;;;1.90;;
20709;SDS011;10516;51.518;9.864;2023-01-08T10:23:10;3.38;;;1.67;;
20709;SDS011;10516;51.518;9.864;2023-01-08T10:28:21;2.47;;;1.98;;
20709;SDS011;10516;51.518;9.864;2023-01-08T10:31:03;1.90;;;1.80;;
20709;SDS011;10516;51.518;9.864;2023-01-08T10:33:41;2.50;;;2.30;;
20709;SDS011;10516;51.518;9.864;2023-01-08T10:36:18;2.85;;;2.45;;
20709;SDS011;10516;51.518;9.864;2023-01-08T10:38:55;4.00;;;2.15;;
20709;SDS011;10516;51.518;9.864;2023-01-08T10:41:24;2.50;;;2.30;;
20709;SDS011;10516;51.518;9.864;2023-01-08T10:43:55;2.90;;;2.60;;
20709;SDS011;10516;51.518;9.864;2023-01-08T10:46:35;7.47;;;5.93;;
20709;SDS011;10516;51.518;9.864;2023-01-08T10:49:06;9.88;;;5.90;;
20709;SDS011;10516;51.518;9.864;2023-01-08T10:51:49;5.05;;;4.55;;
20709;SDS011;10516;51.518;9.864;2023-01-08T10:54:25;6.75;;;6.05;;
20709;SDS011;10516;51.518;9.864;2023-01-08T10:56:54;3.67;;;2.90;;
20709;SDS011;10516;51.518;9.864;2023-01-08T10:59:20;6.25;;;3.55;;
20709;SDS011;10516;51.518;9.864;2023-01-08T11:01:47;4.10;;;3.70;;
20709;SDS011;10516;51.518;9.864;2023-01-08T11:04:15;12.35;;;7.80;;
20709;SDS011;10516;51.518;9.864;2023-01-08T11:09:22;8.67;;;6.93;;
20709;SDS011;10516;51.518;9.864;2023-01-08T11:11:51;7.32;;;6.50;;
20709;SDS011;10516;51.518;9.864;2023-01-08T11:14:21;4.55;;;3.75;;
20709;SDS011;10516;51.518;9.864;2023-01-08T11:16:50;19.55;;;13.25;;
20709;SDS011;10516;51.518;9.864;2023-01-08T11:19:27;28.02;;;18.85;;
20709;SDS011;10516;51.518;9.864;2023-01-08T11:22:01;8.73;;;7.05;;
20709;SDS011;10516;51.518;9.864;2023-01-08T11:35:12;3.38;;;3.08;;
20709;SDS011;10516;51.518;9.864;2023-01-08T11:45:54;10.98;;;6.55;;
20709;SDS011;10516;51.518;9.864;2023-01-08T11:54:08;9.82;;;7.13;;
20709;SDS011;10516;51.518;9.864;2023-01-08T11:56:50;8.25;;;7.00;;
20709;SDS011;10516;51.518;9.864;2023-01-08T12:04:50;6.25;;;4.80;;
20709;SDS011;10516;51.518;9.864;2023-01-08T12:10:29;3.50;;;2.88;;
20709;SDS011;10516;51.518;9.864;2023-01-08T12:16:26;3.20;;;2.85;;
20709;SDS011;10516;51.518;9.864;2023-01-08T12:21:12;6.82;;;5.50;;
20709;SDS011;10516;51.518;9.864;2023-01-08T12:31:55;6.97;;;3.90;;
20709;SDS011;10516;51.518;9.864;2023-01-08T12:34:35;3.42;;;3.03;;
20709;SDS011;10516;51.518;9.864;2023-01-08T12:37:04;9.38;;;4.15;;
20709;SDS011;10516;51.518;9.864;2023-01-08T12:39:42;3.03;;;2.83;;
20709;SDS011;10516;51.518;9.864;2023-01-08T12:44:42;5.55;;;3.92;;
20709;SDS011;10516;51.518;9.864;2023-01-08T12:47:12;6.47;;;3.60;;
20709;SDS011;10516;51.518;9.864;2023-01-08T12:55:36;4.25;;;3.00;;
20709;SDS011;10516;51.518;9.864;2023-01-08T13:01:26;8.52;;;5.00;;
20709;SDS011;10516;51.518;9.864;2023-01-08T13:04:14;4.97;;;2.88;;
20709;SDS011;10516;51.518;9.864;2023-01-08T13:09:28;4.07;;;2.50;;
20709;SDS011;10516;51.518;9.864;2023-01-08T13:11:55;2.25;;;2.05;;
20709;SDS011;10516;51.518;9.864;2023-01-08T13:14:22;2.60;;;2.40;;
20709;SDS011;10516;51.518;9.864;2023-01-08T13:16:59;3.25;;;2.40;;
20709;SDS011;10516;51.518;9.864;2023-01-08T13:19:41;3.53;;;2.03;;
20709;SDS011;10516;51.518;9.864;2023-01-08T13:22:31;2.78;;;2.13;;
20709;SDS011;10516;51.518;9.864;2023-01-08T13:27:41;3.78;;;2.25;;
20709;SDS011;10516;51.518;9.864;2023-01-08T13:33:21;2.85;;;2.65;;
20709;SDS011;10516;51.518;9.864;2023-01-08T13:38:36;1.80;;;1.70;;
20709;SDS011;10516;51.518;9.864;2023-01-08T13:41:01;1.90;;;1.80;;
20709;SDS011;10516;51.518;9.864;2023-01-08T13:43:34;2.83;;;1.52;;
20709;SDS011;10516;51.518;9.864;2023-01-08T13:48:38;2.78;;;1.80;;
20709;SDS011;10516;51.518;9.864;2023-01-08T13:56:43;2.85;;;1.83;;
20709;SDS011;10516;51.518;9.864;2023-01-08T13:59:19;2.00;;;1.90;;
20709;SDS011;10516;51.518;9.864;2023-01-08T14:01:56;3.03;;;2.15;;
20709;SDS011;10516;51.518;9.864;2023-01-08T14:04:24;4.35;;;2.20;;
20709;SDS011;10516;51.518;9.864;2023-01-08T14:06:49;6.95;;;3.75;;
20709;SDS011;10516;51.518;9.864;2023-01-08T14:09:22;2.33;;;1.90;;
20709;SDS011;10516;51.518;9.864;2023-01-08T14:11:50;3.92;;;2.75;;
20709;SDS011;10516;51.518;9.864;2023-01-08T14:14:20;5.70;;;2.90;;
20709;SDS011;10516;51.518;9.864;2023-01-08T14:16:47;6.50;;;3.85;;
20709;SDS011;10516;51.518;9.864;2023-01-08T14:19:23;6.55;;;3.78;;
20709;SDS011;10516;51.518;9.864;2023-01-08T14:21:55;7.72;;;4.65;;
20709;SDS011;10516;51.518;9.864;2023-01-08T14:24:25;5.55;;;3.85;;
20709;SDS011;10516;51.518;9.864;2023-01-08T14:26:58;4.80;;;3.58;;
20709;SDS011;10516;51.518;9.864;2023-01-08T14:29:25;4.05;;;2.85;;
20709;SDS011;10516;51.518;9.864;2023-01-08T14:31:58;2.70;;;2.13;;
20709;SDS011;10516;51.518;9.864;2023-01-08T14:34:25;2.72;;;2.35;;
20709;SDS011;10516;51.518;9.864;2023-01-08T14:36:54;3.10;;;2.83;;
20709;SDS011;10516;51.518;9.864;2023-01-08T14:39:32;2.03;;;1.80;;
20709;SDS011;10516;51.518;9.864;2023-01-08T14:42:00;2.97;;;2.78;;
20709;SDS011;10516;51.518;9.864;2023-01-08T14:47:52;3.05;;;2.42;;
20709;SDS011;10516;51.518;9.864;2023-01-08T14:50:24;3.55;;;2.28;;
20709;SDS011;10516;51.518;9.864;2023-01-08T14:52:52;1.80;;;1.70;;
20709;SDS011;10516;51.518;9.864;2023-01-08T14:55:22;1.95;;;1.73;;
20709;SDS011;10516;51.518;9.864;2023-01-08T14:57:50;2.30;;;1.70;;
20709;SDS011;10516;51.518;9.864;2023-01-08T15:00:20;1.73;;;1.63;;
20709;SDS011;10516;51.518;9.864;2023-01-08T15:02:49;2.58;;;1.70;;
20709;SDS011;10516;51.518;9.864;2023-01-08T15:05:16;3.08;;;2.05;;
20709;SDS011;10516;51.518;9.864;2023-01-08T15:07:42;3.58;;;1.85;;
20709;SDS011;10516;51.518;9.864;2023-01-08T15:10:25;2.00;;;1.80;;
20709;SDS011;10516;51.518;9.864;2023-01-08T15:12:56;1.85;;;1.75;;
20709;SDS011;10516;51.518;9.864;2023-01-08T15:15:24;1.55;;;1.45;;
20709;SDS011;10516;51.518;9.864;2023-01-08T15:17:51;1.80;;;1.67;;
20709;SDS011;10516;51.518;9.864;2023-01-08T15:20:18;3.78;;;3.22;;
20709;SDS011;10516;51.518;9.864;2023-01-08T15:22:45;2.72;;;2.50;;
20709;SDS011;10516;51.518;9.864;2023-01-08T15:25:22;2.78;;;2.58;;
20709;SDS011;10516;51.518;9.864;2023-01-08T15:27:57;2.65;;;2.45;;
20709;SDS011;10516;51.518;9.864;2023-01-08T15:33:20;3.47;;;2.65;;
20709;SDS011;10516;51.518;9.864;2023-01-08T15:35:48;3.13;;;2.83;;
20709;SDS011;10516;51.518;9.864;2023-01-08T15:38:14;5.40;;;3.33;;
20709;SDS011;10516;51.518;9.864;2023-01-08T15:40:40;4.32;;;3.88;;
20709;SDS011;10516;51.518;9.864;2023-01-08T15:43:08;4.22;;;3.83;;
20709;SDS011;10516;51.518;9.864;2023-01-08T15:45:35;5.45;;;4.93;;
20709;SDS011;10516;51.518;9.864;2023-01-08T15:48:02;38.22;;;15.38;;
20709;SDS011;10516;51.518;9.864;2023-01-08T15:50:28;57.25;;;26.42;;
20709;SDS011;10516;51.518;9.864;2023-01-08T15:52:56;15.85;;;7.90;;
20709;SDS011;10516;51.518;9.864;2023-01-08T15:55:24;14.30;;;7.75;;
20709;SDS011;10516;51.518;9.864;2023-01-08T15:57:50;23.13;;;11.57;;
20709;SDS011;10516;51.518;9.864;2023-01-08T16:00:16;71.43;;;34.90;;
20709;SDS011;10516;51.518;9.864;2023-01-08T16:02:44;16.30;;;9.48;;
20709;SDS011;10516;51.518;9.864;2023-01-08T16:05:11;41.10;;;21.65;;
20709;SDS011;10516;51.518;9.864;2023-01-08T16:07:37;22.08;;;10.88;;
20709;SDS011;10516;51.518;9.864;2023-01-08T16:10:03;20.20;;;9.82;;
20709;SDS011;10516;51.518;9.864;2023-01-08T16:12:29;18.98;;;11.00;;
20709;SDS011;10516;51.518;9.864;2023-01-08T16:14:54;33.38;;;16.88;;
20709;SDS011;10516;51.518;9.864;2023-01-08T16:17:19;50.72;;;27.52;;
20709;SDS011;10516;51.518;9.864;2023-01-08T16:19:45;27.77;;;16.33;;
20709;SDS011;10516;51.518;9.864;2023-01-08T16:22:10;18.67;;;11.10;;
20709;SDS011;10516;51.518;9.864;2023-01-08T16:24:35;17.60;;;10.57;;
20709;SDS011;10516;51.518;9.864;2023-01-08T16:27:01;22.63;;;14.52;;
20709;SDS011;10516;51.518;9.864;2023-01-08T16:29:26;9.15;;;7.82;;
20709;SDS011;10516;51.518;9.864;2023-01-08T16:31:52;7.95;;;5.57;;
20709;SDS011;10516;51.518;9.864;2023-01-08T16:34:18;7.50;;;4.88;;
20709;SDS011;10516;51.518;9.864;2023-01-08T16:36:44;5.88;;;4.57;;
20709;SDS011;10516;51.518;9.864;2023-01-08T16:39:09;9.50;;;4.70;;